Time;durP1;ratioP1;P1;durP2;ratioP2;P2;SDS_P1;SDS_P2;PMS_P1;PMS_P2;Temp;Humidity;BMP_temperature;BMP_pressure;BME280_temperature;BME280_humidity;BME280_pressure;Samples;Min_cycle;Max_cycle;Signal;HPM_P1;HPM_P2
2022/10/05 00:02:16;;;;;;;1.20;1.10;;;10.70;85.00;;;;;;5047876;28;20661;-69
2022/10/05 00:04:42;;;;;;;2.53;1.27;;;10.70;85.00;;;;;;5049937;28;20183;-69
2022/10/05 00:07:13;;;;;;;1.30;0.98;;;10.70;85.20;;;;;;5054990;28;20194;-68
2022/10/05 00:09:39;;;;;;;0.90;0.90;;;10.60;85.10;;;;;;5049440;28;20179;-69
2022/10/05 00:12:13;;;;;;;1.08;1.08;;;10.60;85.20;;;;;;5051047;28;20180;-70
2022/10/05 00:14:39;;;;;;;1.63;1.25;;;10.60;85.00;;;;;;5049184;28;20266;-69
2022/10/05 00:17:05;;;;;;;1.30;1.20;;;10.60;85.20;;;;;;5047016;28;20710;-69
2022/10/05 00:19:37;;;;;;;3.13;1.20;;;10.60;85.20;;;;;;5049515;28;20408;-69
2022/10/05 00:22:17;;;;;;;1.38;1.38;;;10.50;85.40;;;;;;5048979;28;20175;-69
2022/10/05 00:24:44;;;;;;;0.93;0.93;;;10.50;85.40;;;;;;5051991;28;20613;-69
2022/10/05 00:27:16;;;;;;;0.85;0.85;;;10.50;85.80;;;;;;5047682;28;20191;-68
2022/10/05 00:29:42;;;;;;;1.20;1.20;;;10.50;85.60;;;;;;5045534;28;20188;-69
2022/10/05 00:32:09;;;;;;;0.82;0.82;;;10.50;85.90;;;;;;5048594;28;20189;-69
2022/10/05 00:34:35;;;;;;;0.70;0.70;;;10.50;85.80;;;;;;5046271;28;20278;-69
2022/10/05 00:37:01;;;;;;;1.10;0.80;;;10.50;85.60;;;;;;5050070;28;20218;-69
2022/10/05 00:39:28;;;;;;;0.88;0.88;;;10.50;85.80;;;;;;5050537;28;20183;-70
2022/10/05 00:41:54;;;;;;;0.80;0.80;;;10.50;85.70;;;;;;5045028;28;20183;-69
2022/10/05 00:44:41;;;;;;;0.80;0.80;;;10.50;85.50;;;;;;5043347;28;20908;-69
2022/10/05 00:47:16;;;;;;;0.93;0.85;;;10.40;84.90;;;;;;5049150;28;20183;-69
2022/10/05 00:49:50;;;;;;;0.90;0.90;;;10.40;84.50;;;;;;5052361;28;20190;-69
2022/10/05 00:52:33;;;;;;;1.13;1.13;;;10.40;84.50;;;;;;5044901;28;20187;-69
2022/10/05 00:55:24;;;;;;;1.35;1.35;;;10.40;84.40;;;;;;5051129;28;20183;-69
2022/10/05 00:58:08;;;;;;;1.67;1.58;;;10.30;84.20;;;;;;5043462;28;20241;-69
2022/10/05 01:00:44;;;;;;;1.90;1.80;;;10.20;83.90;;;;;;5050151;28;20172;-69
2022/10/05 01:03:16;;;;;;;2.97;2.63;;;10.20;85.00;;;;;;5053607;28;20975;-69
2022/10/05 01:06:03;;;;;;;2.78;2.58;;;10.10;84.40;;;;;;5043630;28;20549;-69
2022/10/05 01:08:29;;;;;;;2.83;2.58;;;10.10;83.70;;;;;;5048561;28;20679;-69
2022/10/05 01:11:19;;;;;;;3.65;2.47;;;10.00;84.30;;;;;;5051406;28;20179;-69
2022/10/05 01:13:47;;;;;;;4.47;2.80;;;9.90;83.80;;;;;;5048891;28;20192;-69
2022/10/05 01:16:37;;;;;;;3.00;2.80;;;9.80;83.60;;;;;;5049913;28;20178;-69
2022/10/05 01:19:51;;;;;;;3.10;2.90;;;9.80;83.70;;;;;;5047874;28;20278;-69
2022/10/05 01:22:31;;;;;;;4.80;2.53;;;9.80;83.30;;;;;;5026630;28;20200;-69
2022/10/05 01:25:22;;;;;;;4.13;2.83;;;9.70;83.50;;;;;;5026327;28;20203;-69
2022/10/05 01:28:10;;;;;;;2.85;2.75;;;9.70;83.20;;;;;;5024103;28;20188;-69
2022/10/05 01:30:59;;;;;;;2.77;2.57;;;9.60;83.20;;;;;;5027434;28;20180;-69
2022/10/05 01:33:33;;;;;;;3.25;3.03;;;9.60;83.80;;;;;;5026435;28;20294;-69
2022/10/05 01:36:19;;;;;;;3.47;3.25;;;9.50;83.90;;;;;;5023751;28;20199;-69
2022/10/05 01:39:02;;;;;;;2.83;2.63;;;9.50;83.70;;;;;;5026135;28;20295;-69
2022/10/05 01:41:44;;;;;;;2.67;2.47;;;9.50;83.40;;;;;;5027436;28;20183;-69
2022/10/05 01:44:12;;;;;;;2.88;2.78;;;9.40;83.40;;;;;;5025840;28;20192;-69
2022/10/05 01:47:01;;;;;;;2.60;2.40;;;9.40;83.90;;;;;;5026408;28;20196;-69
2022/10/05 01:49:54;;;;;;;2.60;2.40;;;9.40;84.20;;;;;;5026416;28;20203;-69
2022/10/05 01:52:50;;;;;;;1.90;1.83;;;9.40;85.70;;;;;;5031333;28;20230;-69
2022/10/05 01:55:28;;;;;;;2.40;2.27;;;9.30;84.70;;;;;;5032120;28;20179;-69
2022/10/05 01:58:12;;;;;;;2.10;2.00;;;9.30;85.10;;;;;;5031265;28;20351;-69
2022/10/05 02:00:49;;;;;;;2.63;2.43;;;9.30;85.00;;;;;;5051094;28;20236;-69
2022/10/05 02:03:24;;;;;;;1.77;1.75;;;9.20;84.70;;;;;;5050801;28;20187;-68
2022/10/05 02:05:55;;;;;;;2.57;2.37;;;9.20;84.80;;;;;;5046559;28;20562;-69
2022/10/05 02:08:35;;;;;;;1.90;1.80;;;9.20;85.20;;;;;;5046795;28;20184;-69
2022/10/05 02:11:08;;;;;;;2.20;2.10;;;9.10;84.80;;;;;;5046981;28;20183;-68
2022/10/05 02:13:42;;;;;;;2.30;2.20;;;9.10;85.60;;;;;;5041967;28;20325;-69
2022/10/05 02:16:47;;;;;;;2.20;2.00;;;9.10;86.30;;;;;;5054569;28;20182;-68
2022/10/05 02:19:24;;;;;;;1.77;1.75;;;9.10;86.70;;;;;;4998018;28;20185;-68
2022/10/05 02:22:22;;;;;;;2.47;2.03;;;9.00;86.60;;;;;;4997098;28;20188;-68
2022/10/05 02:24:56;;;;;;;2.20;2.10;;;9.00;86.40;;;;;;4941483;28;20191;-68
2022/10/05 02:27:31;;;;;;;2.20;2.00;;;9.00;86.20;;;;;;4944425;29;20199;-68
2022/10/05 02:30:03;;;;;;;2.20;2.10;;;8.90;86.20;;;;;;4944402;28;20631;-68
2022/10/05 02:32:38;;;;;;;1.87;1.77;;;8.90;86.00;;;;;;4944279;29;20183;-68
2022/10/05 02:35:13;;;;;;;2.33;2.23;;;8.90;85.80;;;;;;4944303;28;20275;-68
2022/10/05 02:37:41;;;;;;;2.23;2.13;;;8.80;86.10;;;;;;4945178;28;20222;-68
2022/10/05 02:40:31;;;;;;;2.27;2.17;;;8.80;85.80;;;;;;4941533;28;20190;-68
2022/10/05 02:43:10;;;;;;;5.63;1.90;;;8.80;86.20;;;;;;4943881;28;20211;-69
2022/10/05 02:46:10;;;;;;;1.80;1.70;;;8.80;86.40;;;;;;4942165;28;20583;-69
2022/10/05 02:48:44;;;;;;;1.87;1.77;;;8.80;87.90;;;;;;4939274;28;20290;-69
2022/10/05 02:51:23;;;;;;;1.90;1.80;;;8.80;87.50;;;;;;4943450;28;20589;-70
2022/10/05 02:54:20;;;;;;;4.80;1.83;;;8.80;87.40;;;;;;4942192;28;20203;-68
2022/10/05 02:57:15;;;;;;;1.80;1.80;;;8.70;86.90;;;;;;4919984;29;20256;-69
2022/10/05 02:59:51;;;;;;;1.47;1.43;;;8.70;86.50;;;;;;4925464;29;20250;-68
2022/10/05 03:02:25;;;;;;;1.57;1.57;;;8.60;87.20;;;;;;4979556;28;20293;-70
2022/10/05 03:05:13;;;;;;;1.40;1.40;;;8.60;86.70;;;;;;5006139;28;20201;-68
2022/10/05 03:07:48;;;;;;;1.53;1.53;;;8.60;86.30;;;;;;5010594;28;20204;-67
2022/10/05 03:10:57;;;;;;;2.37;1.60;;;8.60;86.70;;;;;;4993506;28;20192;-70
2022/10/05 03:13:36;;;;;;;1.73;1.67;;;8.50;86.30;;;;;;5000128;28;20185;-70
2022/10/05 03:16:52;;;;;;;1.80;1.70;;;8.50;86.50;;;;;;4999845;28;20197;-68
2022/10/05 03:19:44;;;;;;;1.73;1.63;;;8.50;86.80;;;;;;5002037;28;20574;-68
2022/10/05 03:22:15;;;;;;;1.40;1.30;;;8.50;87.00;;;;;;5001616;28;20612;-70
2022/10/05 03:25:17;;;;;;;1.80;1.70;;;8.50;86.90;;;;;;5001977;28;20703;-70
2022/10/05 03:28:01;;;;;;;2.10;2.00;;;8.40;86.40;;;;;;5001045;28;20743;-69
2022/10/05 03:30:34;;;;;;;1.80;1.73;;;8.40;87.60;;;;;;4998579;28;20208;-70
2022/10/05 03:33:14;;;;;;;1.77;1.67;;;8.40;87.50;;;;;;5007436;28;20209;-69
2022/10/05 03:36:10;;;;;;;2.23;1.90;;;8.40;86.90;;;;;;5059952;28;20668;-68
2022/10/05 03:38:54;;;;;;;3.43;1.30;;;8.40;86.90;;;;;;5060443;28;20199;-68
2022/10/05 03:41:29;;;;;;;2.57;1.70;;;8.30;87.00;;;;;;5059460;28;20183;-69
2022/10/05 03:44:32;;;;;;;1.73;1.70;;;8.30;86.90;;;;;;5060013;28;20208;-67
2022/10/05 03:47:19;;;;;;;1.80;1.80;;;8.30;87.10;;;;;;5042565;28;20178;-68
2022/10/05 03:50:10;;;;;;;2.30;1.50;;;8.30;87.10;;;;;;5060612;28;20195;-68
2022/10/05 03:52:49;;;;;;;10.83;1.40;;;8.30;86.90;;;;;;5049776;28;20740;-68
2022/10/05 03:55:17;;;;;;;2.20;1.67;;;8.20;86.80;;;;;;5050485;28;20172;-68
2022/10/05 03:57:44;;;;;;;1.73;1.63;;;8.20;86.90;;;;;;5047201;28;21430;-70
2022/10/05 04:00:17;;;;;;;1.57;1.47;;;8.20;86.70;;;;;;5047319;28;20496;-68
2022/10/05 04:03:00;;;;;;;1.47;1.33;;;8.20;86.60;;;;;;5048835;28;20187;-74
2022/10/05 04:05:31;;;;;;;1.40;1.30;;;8.10;86.60;;;;;;5048203;28;20190;-74
2022/10/05 04:08:21;;;;;;;0.97;0.97;;;8.10;86.70;;;;;;5050078;28;20180;-74
2022/10/05 04:10:53;;;;;;;1.83;1.73;;;8.10;86.40;;;;;;5047017;28;20183;-74
2022/10/05 04:13:46;;;;;;;2.17;1.53;;;8.00;86.80;;;;;;5046355;28;20861;-74
2022/10/05 04:16:14;;;;;;;1.63;1.63;;;8.00;87.50;;;;;;5046138;28;20258;-75
2022/10/05 04:18:44;;;;;;;5.80;2.10;;;8.00;88.00;;;;;;5045664;28;20209;-74
2022/10/05 04:21:24;;;;;;;1.73;1.73;;;8.00;88.20;;;;;;5050370;28;20183;-74
2022/10/05 04:24:08;;;;;;;2.03;2.03;;;8.00;88.50;;;;;;5054911;28;20179;-73
2022/10/05 04:26:48;;;;;;;1.67;1.67;;;8.00;88.40;;;;;;5051967;28;20183;-73
2022/10/05 04:29:36;;;;;;;1.83;1.83;;;7.90;88.30;;;;;;5049191;28;20262;-73
2022/10/05 04:32:22;;;;;;;2.07;2.07;;;7.90;87.60;;;;;;5050281;28;20284;-75
2022/10/05 04:34:56;;;;;;;1.63;1.63;;;7.80;88.30;;;;;;5057643;28;20211;-75
2022/10/05 04:37:57;;;;;;;2.20;2.10;;;7.80;88.70;;;;;;5053824;28;20375;-74
2022/10/05 04:40:43;;;;;;;1.83;1.73;;;7.80;88.50;;;;;;5020935;28;20191;-74
2022/10/05 04:43:50;;;;;;;1.13;1.13;;;7.80;88.80;;;;;;5019157;28;20181;-74
2022/10/05 04:46:37;;;;;;;1.40;1.33;;;7.80;88.60;;;;;;4993611;28;20196;-74
2022/10/05 04:49:17;;;;;;;1.20;1.20;;;7.80;87.90;;;;;;4990567;28;20592;-74
2022/10/05 04:51:52;;;;;;;1.50;1.40;;;7.80;89.20;;;;;;4992937;28;20205;-74
2022/10/05 04:54:46;;;;;;;1.70;1.70;;;7.80;89.20;;;;;;4998347;28;20197;-76
2022/10/05 04:57:48;;;;;;;1.40;1.40;;;7.90;88.70;;;;;;4992832;28;20340;-76
2022/10/05 05:00:44;;;;;;;1.60;1.60;;;7.90;89.20;;;;;;4952049;28;20208;-75
2022/10/05 05:03:40;;;;;;;2.13;1.77;;;8.00;89.80;;;;;;4946309;28;20210;-74
2022/10/05 05:06:27;;;;;;;3.30;2.07;;;8.00;89.40;;;;;;4951005;28;20186;-75
2022/10/05 05:09:17;;;;;;;1.87;1.77;;;8.00;89.50;;;;;;4933669;28;21149;-75
2022/10/05 05:12:19;;;;;;;1.53;1.40;;;8.00;89.30;;;;;;4952211;28;20230;-75
2022/10/05 05:15:10;;;;;;;1.10;1.10;;;8.10;89.50;;;;;;4933492;28;20189;-75
2022/10/05 05:18:04;;;;;;;1.50;1.40;;;8.20;89.60;;;;;;4953180;28;20227;-74
2022/10/05 05:20:40;;;;;;;2.13;1.93;;;8.20;89.60;;;;;;4991451;28;20765;-75
2022/10/05 05:23:26;;;;;;;2.00;1.90;;;8.30;89.70;;;;;;5001369;28;20317;-76
2022/10/05 05:26:09;;;;;;;2.13;2.00;;;8.30;89.60;;;;;;5020970;28;20204;-75
2022/10/05 05:29:01;;;;;;;1.87;1.73;;;8.40;89.70;;;;;;5019316;28;20330;-76
2022/10/05 05:31:43;;;;;;;1.87;1.77;;;8.40;89.90;;;;;;4989100;28;20360;-75
2022/10/05 05:34:31;;;;;;;1.90;1.90;;;8.40;90.00;;;;;;4995918;28;20204;-75
2022/10/05 05:37:00;;;;;;;1.80;1.80;;;8.50;90.10;;;;;;5019543;28;20303;-75
2022/10/05 05:39:53;;;;;;;1.93;1.93;;;8.60;90.40;;;;;;5030452;28;20192;-75
2022/10/05 05:42:38;;;;;;;1.87;1.87;;;8.60;90.00;;;;;;5030248;28;20279;-75
2022/10/05 05:45:26;;;;;;;2.87;2.67;;;8.60;89.90;;;;;;5027263;28;20192;-75
2022/10/05 05:47:53;;;;;;;2.10;1.90;;;8.70;89.90;;;;;;5026596;28;20187;-75
2022/10/05 05:50:52;;;;;;;3.87;2.27;;;8.70;90.20;;;;;;5010616;28;20257;-75
2022/10/05 05:53:31;;;;;;;2.33;2.23;;;8.80;89.80;;;;;;5034748;28;20669;-75
2022/10/05 05:56:15;;;;;;;2.20;2.10;;;8.90;90.20;;;;;;5027943;28;20623;-75
2022/10/05 05:58:58;;;;;;;2.13;1.93;;;8.90;90.20;;;;;;5033117;28;20204;-75
2022/10/05 06:01:37;;;;;;;9.00;2.00;;;9.00;90.20;;;;;;5040991;28;20229;-76
2022/10/05 06:04:17;;;;;;;2.03;1.92;;;9.10;90.30;;;;;;5038004;28;20188;-75
2022/10/05 06:06:47;;;;;;;2.43;1.87;;;9.10;90.20;;;;;;5022782;28;20190;-75
2022/10/05 06:09:24;;;;;;;3.23;2.93;;;9.20;90.50;;;;;;5057856;28;20313;-76
2022/10/05 06:11:55;;;;;;;3.47;3.17;;;9.30;90.50;;;;;;5064173;28;20712;-75
2022/10/05 06:14:30;;;;;;;2.90;2.80;;;9.40;91.30;;;;;;5060236;28;20186;-74
2022/10/05 06:17:01;;;;;;;4.20;2.97;;;9.50;90.90;;;;;;5056772;28;20210;-74
2022/10/05 06:19:31;;;;;;;6.78;3.40;;;9.50;90.80;;;;;;5055464;28;20799;-74
2022/10/05 06:22:29;;;;;;;3.17;2.97;;;9.60;90.70;;;;;;5059342;28;20187;-75
2022/10/05 06:25:16;;;;;;;4.03;2.93;;;9.70;90.30;;;;;;5061814;28;20266;-75
2022/10/05 06:28:11;;;;;;;3.55;3.40;;;9.80;90.20;;;;;;5060619;28;20186;-75
2022/10/05 06:30:36;;;;;;;3.50;3.28;;;9.80;90.20;;;;;;5057247;28;20661;-75
2022/10/05 06:33:20;;;;;;;3.67;3.37;;;9.90;90.40;;;;;;5053229;28;20179;-75
2022/10/05 06:36:05;;;;;;;3.85;3.58;;;9.90;90.30;;;;;;5058658;28;20186;-75
2022/10/05 06:38:34;;;;;;;3.57;3.27;;;10.00;90.20;;;;;;5058320;28;20219;-75
2022/10/05 06:41:08;;;;;;;3.72;3.53;;;10.10;90.20;;;;;;5057525;28;20266;-75
2022/10/05 06:44:02;;;;;;;4.25;3.80;;;10.10;89.80;;;;;;5058608;28;20178;-76
2022/10/05 06:46:40;;;;;;;3.40;3.10;;;10.20;89.70;;;;;;5054571;28;20213;-76
2022/10/05 06:49:17;;;;;;;3.15;2.95;;;10.20;89.70;;;;;;5057234;28;20261;-76
2022/10/05 06:51:45;;;;;;;3.90;3.60;;;10.30;89.40;;;;;;5057340;28;20183;-75
2022/10/05 06:54:36;;;;;;;3.28;2.90;;;10.30;89.70;;;;;;5058348;28;20179;-74
2022/10/05 06:57:39;;;;;;;4.63;3.72;;;10.40;89.20;;;;;;5050981;28;20717;-75
2022/10/05 07:00:16;;;;;;;4.15;3.90;;;10.50;89.50;;;;;;5058633;28;20266;-76
2022/10/05 07:02:51;;;;;;;3.65;3.33;;;10.60;89.30;;;;;;5062318;28;20683;-73
2022/10/05 07:05:42;;;;;;;3.53;3.22;;;10.70;89.10;;;;;;5059332;28;20277;-75
2022/10/05 07:08:55;;;;;;;3.75;3.45;;;10.80;89.20;;;;;;5056668;28;20200;-74
2022/10/05 07:11:31;;;;;;;4.65;4.13;;;10.90;88.80;;;;;;5014242;28;20224;-75
2022/10/05 07:14:29;;;;;;;3.50;3.20;;;11.00;89.40;;;;;;5013535;28;20189;-74
2022/10/05 07:17:24;;;;;;;3.20;2.90;;;11.10;88.90;;;;;;5003645;28;20223;-75
2022/10/05 07:20:03;;;;;;;3.40;1.67;;;11.20;88.90;;;;;;5003490;28;20604;-74
2022/10/05 07:22:37;;;;;;;1.80;1.80;;;11.30;87.90;;;;;;5004260;28;20820;-74
2022/10/05 07:25:17;;;;;;;1.35;1.35;;;11.40;88.10;;;;;;4980147;28;21234;-74
2022/10/05 07:27:54;;;;;;;2.30;1.77;;;11.60;88.30;;;;;;5002942;28;20664;-75
2022/10/05 07:30:20;;;;;;;2.95;1.63;;;11.70;87.80;;;;;;5002730;28;20184;-75
2022/10/05 07:33:16;;;;;;;2.38;2.20;;;11.80;87.80;;;;;;5002402;28;20177;-74
2022/10/05 07:39:08;;;;;;;1.70;1.70;;;12.40;87.40;;;;;;5000431;28;20200;-74
2022/10/05 07:41:46;;;;;;;3.47;2.13;;;12.80;85.10;;;;;;5001758;28;20197;-74
2022/10/05 07:44:19;;;;;;;1.92;1.75;;;13.40;84.20;;;;;;5001370;28;20266;-73
2022/10/05 07:47:02;;;;;;;2.35;1.80;;;14.00;84.90;;;;;;5001639;28;20380;-74
2022/10/05 07:49:31;;;;;;;3.53;1.48;;;15.00;84.00;;;;;;5002622;28;20200;-74
2022/10/05 07:52:26;;;;;;;3.63;1.60;;;15.90;83.90;;;;;;5003222;28;20308;-73
2022/10/05 07:54:57;;;;;;;1.60;1.50;;;16.90;81.70;;;;;;5049030;28;20210;-74
2022/10/05 07:57:30;;;;;;;1.95;1.50;;;18.10;79.00;;;;;;5050089;28;20273;-74
2022/10/05 08:00:10;;;;;;;3.72;1.77;;;19.00;76.70;;;;;;5053649;28;20176;-74
2022/10/05 08:02:43;;;;;;;2.00;1.90;;;20.00;73.80;;;;;;5044665;28;20190;-74
2022/10/05 08:05:33;;;;;;;1.77;1.70;;;21.00;71.80;;;;;;5053972;28;20187;-75
2022/10/05 08:08:22;;;;;;;2.45;2.35;;;22.00;70.30;;;;;;5050678;28;20732;-75
2022/10/05 08:11:31;;;;;;;3.40;2.25;;;22.80;68.30;;;;;;5053798;28;20188;-74
2022/10/05 08:14:04;;;;;;;2.90;2.75;;;23.80;64.80;;;;;;5000995;28;20192;-75
2022/10/05 08:16:36;;;;;;;2.70;2.42;;;24.40;64.40;;;;;;5001743;28;20942;-75
2022/10/05 08:19:21;;;;;;;2.28;2.28;;;24.90;64.00;;;;;;5001070;28;20193;-76
2022/10/05 08:22:18;;;;;;;17.02;10.13;;;25.40;63.20;;;;;;5001082;28;20219;-75
2022/10/05 08:25:02;;;;;;;36.45;14.90;;;25.90;62.60;;;;;;4998915;28;20199;-75
2022/10/05 08:27:40;;;;;;;12.18;8.95;;;26.50;60.90;;;;;;5000973;28;20702;-75
2022/10/05 08:30:12;;;;;;;48.78;21.90;;;26.90;59.90;;;;;;5000547;28;20243;-76
2022/10/05 08:32:46;;;;;;;14.18;7.65;;;27.40;60.40;;;;;;4999290;28;20201;-75
2022/10/05 08:35:32;;;;;;;7.38;6.43;;;27.90;59.70;;;;;;4999738;28;20236;-74
2022/10/05 08:38:01;;;;;;;53.03;20.75;;;28.50;56.50;;;;;;4999557;28;20231;-75
2022/10/05 08:41:25;;;;;;;110.55;28.80;;;29.00;57.50;;;;;;5000836;28;20185;-73
2022/10/05 08:44:16;;;;;;;4.68;4.22;;;29.60;55.40;;;;;;4902588;29;20278;-74
2022/10/05 08:47:26;;;;;;;2.60;1.92;;;30.20;56.10;;;;;;4906341;28;20671;-75
2022/10/05 08:50:01;;;;;;;2.08;1.98;;;30.80;52.50;;;;;;4964697;28;20183;-73
2022/10/05 08:52:36;;;;;;;1.75;1.23;;;31.20;53.90;;;;;;4966828;28;20280;-73
2022/10/05 08:55:26;;;;;;;1.92;1.80;;;31.60;52.20;;;;;;4968794;28;20253;-73
2022/10/05 08:58:02;;;;;;;1.92;1.77;;;31.70;53.40;;;;;;4968100;28;20217;-75
2022/10/05 09:00:38;;;;;;;1.70;1.60;;;31.90;52.50;;;;;;4964357;28;20202;-74
2022/10/05 09:03:33;;;;;;;1.77;1.77;;;31.90;51.10;;;;;;4967501;28;20196;-74
2022/10/05 09:06:17;;;;;;;1.60;1.60;;;31.90;54.10;;;;;;4964387;28;20190;-74
2022/10/05 09:09:01;;;;;;;2.60;1.50;;;32.10;49.60;;;;;;4971127;28;20731;-74
2022/10/05 09:11:39;;;;;;;1.27;1.25;;;32.40;53.50;;;;;;4965298;28;20376;-74
2022/10/05 09:14:11;;;;;;;0.90;0.90;;;32.60;47.50;;;;;;4969904;28;20198;-74
2022/10/05 09:17:00;;;;;;;3.42;1.23;;;32.70;52.10;;;;;;4972473;28;20676;-73
2022/10/05 09:19:50;;;;;;;0.90;0.90;;;32.80;49.40;;;;;;5021820;28;20291;-73
2022/10/05 09:22:38;;;;;;;0.70;0.70;;;33.10;52.20;;;;;;5045061;28;20187;-74
2022/10/05 09:25:18;;;;;;;3.92;1.10;;;33.60;48.50;;;;;;5047106;28;20187;-74
2022/10/05 09:28:10;;;;;;;1.20;1.10;;;33.90;49.60;;;;;;5052528;28;20228;-74
2022/10/05 09:30:57;;;;;;;1.75;0.77;;;34.00;47.20;;;;;;5052760;28;20198;-74
2022/10/05 09:34:14;;;;;;;1.00;0.80;;;34.10;45.30;;;;;;5051599;28;20178;-74
2022/10/05 09:37:16;;;;;;;0.80;0.80;;;34.30;47.80;;;;;;5026151;28;20656;-74
2022/10/05 09:40:12;;;;;;;0.50;0.50;;;34.50;45.50;;;;;;4941944;28;20368;-74
2022/10/05 09:42:52;;;;;;;0.75;0.70;;;34.80;47.00;;;;;;4941126;28;20209;-73
2022/10/05 09:45:44;;;;;;;0.60;0.60;;;34.90;48.70;;;;;;4941447;28;20297;-73
2022/10/05 09:48:31;;;;;;;0.80;0.80;;;35.10;43.80;;;;;;4942561;28;20192;-74
2022/10/05 09:51:08;;;;;;;1.58;0.77;;;35.40;44.20;;;;;;4954969;28;20209;-74
2022/10/05 09:54:28;;;;;;;0.82;0.70;;;35.70;47.60;;;;;;4940212;28;20217;-74
2022/10/05 09:57:14;;;;;;;0.50;0.50;;;35.80;42.40;;;;;;4902862;29;20234;-75
2022/10/05 10:00:11;;;;;;;0.45;0.45;;;35.90;48.10;;;;;;4901758;29;20200;-74
2022/10/05 10:03:14;;;;;;;0.63;0.63;;;36.10;47.20;;;;;;4900951;29;20294;-76
2022/10/05 10:06:19;;;;;;;1.38;0.40;;;36.30;43.20;;;;;;4902487;29;20231;-76
2022/10/05 10:09:00;;;;;;;0.50;0.50;;;36.50;43.40;;;;;;4903114;29;20210;-76
2022/10/05 10:12:01;;;;;;;0.50;0.50;;;36.40;45.40;;;;;;4906193;29;22108;-75
2022/10/05 10:14:37;;;;;;;1.20;0.43;;;36.40;40.10;;;;;;4903821;29;20575;-76
2022/10/05 10:17:14;;;;;;;0.50;0.50;;;36.40;44.90;;;;;;4983362;28;20294;-75
2022/10/05 10:19:59;;;;;;;0.50;0.50;;;36.20;43.80;;;;;;4993204;28;20220;-76
2022/10/05 10:22:24;;;;;;;0.70;0.70;;;35.90;44.60;;;;;;4989945;28;20609;-75
2022/10/05 10:24:53;;;;;;;0.57;0.57;;;35.80;43.30;;;;;;4987105;28;20196;-75
2022/10/05 10:27:39;;;;;;;0.60;0.57;;;35.70;45.80;;;;;;4990252;28;20200;-75
2022/10/05 10:30:27;;;;;;;0.40;0.40;;;35.70;44.10;;;;;;4987553;28;20270;-75
2022/10/05 10:33:10;;;;;;;1.95;0.50;;;35.70;46.00;;;;;;5008149;28;20192;-76
2022/10/05 10:36:18;;;;;;;0.85;0.50;;;35.70;44.80;;;;;;5007113;28;20667;-75
2022/10/05 10:38:58;;;;;;;0.50;0.50;;;35.60;41.10;;;;;;4960980;28;20232;-75
2022/10/05 10:41:42;;;;;;;2.13;0.68;;;35.40;44.40;;;;;;4960851;28;20202;-76
2022/10/05 10:44:23;;;;;;;0.82;0.60;;;35.00;41.90;;;;;;4961442;28;20205;-75
2022/10/05 10:47:19;;;;;;;0.60;0.60;;;34.80;44.60;;;;;;4960872;28;20189;-77
2022/10/05 10:50:06;;;;;;;0.70;0.50;;;34.50;42.70;;;;;;5003947;28;20192;-76
2022/10/05 10:52:38;;;;;;;0.50;0.50;;;33.90;40.60;;;;;;5004962;28;20183;-77
2022/10/05 10:55:22;;;;;;;0.55;0.55;;;33.60;41.80;;;;;;5004466;28;20275;-75
2022/10/05 10:57:59;;;;;;;0.60;0.60;;;33.60;43.60;;;;;;5004184;28;20215;-76
2022/10/05 11:00:49;;;;;;;0.65;0.65;;;33.40;41.60;;;;;;5003215;28;20192;-77
2022/10/05 11:03:57;;;;;;;0.40;0.40;;;33.40;45.30;;;;;;5003841;28;20290;-76
2022/10/05 11:06:34;;;;;;;0.57;0.55;;;33.70;40.40;;;;;;5010402;28;20204;-76
2022/10/05 11:09:15;;;;;;;0.40;0.40;;;33.60;44.10;;;;;;5014271;28;20190;-75
2022/10/05 11:11:58;;;;;;;1.77;0.50;;;33.70;45.10;;;;;;5007430;28;20235;-75
2022/10/05 11:14:39;;;;;;;0.80;0.80;;;33.80;43.50;;;;;;5024899;28;20192;-76
2022/10/05 11:17:33;;;;;;;2.50;0.40;;;34.00;40.80;;;;;;5076215;28;20220;-76
2022/10/05 11:20:11;;;;;;;0.50;0.50;;;34.20;41.00;;;;;;5068767;28;20190;-76
2022/10/05 11:23:25;;;;;;;0.50;0.50;;;34.50;43.50;;;;;;5066583;28;20183;-77
2022/10/05 11:26:24;;;;;;;1.95;0.50;;;34.90;39.10;;;;;;5029455;28;20188;-76
2022/10/05 11:29:24;;;;;;;0.93;0.40;;;35.20;40.70;;;;;;5027443;28;20280;-76
2022/10/05 11:32:12;;;;;;;0.60;0.60;;;35.30;37.90;;;;;;5031586;28;20688;-76
2022/10/05 11:35:12;;;;;;;0.50;0.50;;;35.40;38.50;;;;;;5024721;28;20189;-75
2022/10/05 11:37:44;;;;;;;0.47;0.47;;;35.10;40.00;;;;;;4992997;28;20283;-75
2022/10/05 11:40:25;;;;;;;1.30;0.40;;;35.00;43.90;;;;;;4988636;28;20201;-75
2022/10/05 11:43:14;;;;;;;0.55;0.55;;;34.90;39.80;;;;;;4987393;28;20508;-75
2022/10/05 11:46:04;;;;;;;0.60;0.60;;;34.90;38.80;;;;;;4990084;28;20638;-76
2022/10/05 11:48:34;;;;;;;0.47;0.40;;;35.00;39.10;;;;;;4995667;28;20457;-76
2022/10/05 11:51:18;;;;;;;0.50;0.50;;;35.30;41.10;;;;;;4988715;28;20697;-76
2022/10/05 11:54:01;;;;;;;0.95;0.60;;;35.20;39.20;;;;;;4986579;28;20702;-76
2022/10/05 11:56:45;;;;;;;0.60;0.60;;;35.20;38.10;;;;;;4992898;28;20237;-76
2022/10/05 11:59:33;;;;;;;1.88;0.60;;;35.10;37.80;;;;;;4986630;28;20340;-76
2022/10/05 12:02:20;;;;;;;0.77;0.77;;;35.10;40.60;;;;;;5010357;28;20662;-76
2022/10/05 12:05:02;;;;;;;0.60;0.60;;;35.00;38.70;;;;;;5036777;28;20254;-76
2022/10/05 12:07:51;;;;;;;0.40;0.40;;;35.10;38.60;;;;;;5043114;28;20191;-76
2022/10/05 12:10:31;;;;;;;0.70;0.50;;;35.20;38.50;;;;;;5042707;28;20621;-78
2022/10/05 12:13:15;;;;;;;0.47;0.47;;;35.30;37.20;;;;;;5074483;28;20214;-77
2022/10/05 12:15:47;;;;;;;0.40;0.40;;;35.20;38.40;;;;;;5075516;28;20213;-77
2022/10/05 12:18:24;;;;;;;0.60;0.60;;;35.10;38.90;;;;;;5061817;28;20230;-77
2022/10/05 12:21:03;;;;;;;2.15;0.65;;;35.00;37.70;;;;;;5069734;28;20218;-77
2022/10/05 12:24:12;;;;;;;1.35;0.52;;;34.90;40.00;;;;;;5072587;28;20217;-77
2022/10/05 12:26:56;;;;;;;0.60;0.60;;;34.60;37.40;;;;;;5021092;28;20267;-75
2022/10/05 12:30:20;;;;;;;1.95;0.50;;;34.40;39.10;;;;;;5010999;28;20184;-76
2022/10/05 12:32:58;;;;;;;1.50;0.43;;;34.40;38.40;;;;;;4935342;29;20195;-76
2022/10/05 12:36:08;;;;;;;0.47;0.47;;;34.10;38.40;;;;;;4933015;29;20205;-76
2022/10/05 12:39:35;;;;;;;1.48;0.40;;;33.90;38.40;;;;;;4915556;29;20235;-75
2022/10/05 12:42:24;;;;;;;0.30;0.30;;;33.80;38.00;;;;;;4812114;29;20208;-76
2022/10/05 12:44:55;;;;;;;0.30;0.30;;;33.90;39.70;;;;;;4809996;29;20851;-76
2022/10/05 12:47:41;;;;;;;0.55;0.40;;;33.90;40.80;;;;;;4808868;29;20322;-76
2022/10/05 12:50:20;;;;;;;0.50;0.30;;;33.90;37.60;;;;;;4815444;29;20698;-76
2022/10/05 12:53:00;;;;;;;0.82;0.38;;;33.70;38.40;;;;;;4805137;29;20318;-77
2022/10/05 12:55:47;;;;;;;0.20;0.20;;;33.70;38.10;;;;;;4814041;29;20204;-77
2022/10/05 12:58:31;;;;;;;0.40;0.40;;;33.70;38.30;;;;;;4778082;29;21117;-76
2022/10/05 13:01:20;;;;;;;0.95;0.32;;;33.40;37.70;;;;;;4790461;29;20264;-77
2022/10/05 13:04:02;;;;;;;0.30;0.30;;;33.10;37.30;;;;;;4777883;29;20205;-77
2022/10/05 13:06:57;;;;;;;0.63;0.50;;;32.90;40.50;;;;;;4774674;30;20217;-76
2022/10/05 13:09:34;;;;;;;0.82;0.30;;;32.80;38.70;;;;;;4812822;29;20725;-76
2022/10/05 13:12:17;;;;;;;0.30;0.30;;;32.10;38.80;;;;;;4839026;29;20206;-75
2022/10/05 13:15:02;;;;;;;0.30;0.30;;;31.90;39.90;;;;;;4859653;28;20204;-75
2022/10/05 13:17:57;;;;;;;0.28;0.28;;;31.90;39.80;;;;;;4973135;28;20205;-75
2022/10/05 13:20:36;;;;;;;0.40;0.40;;;31.90;41.50;;;;;;5015964;28;20196;-75
2022/10/05 13:23:39;;;;;;;0.40;0.40;;;31.70;40.40;;;;;;5020706;28;20269;-76
2022/10/05 13:26:32;;;;;;;0.68;0.40;;;31.30;39.40;;;;;;4981223;28;20365;-75
2022/10/05 13:29:20;;;;;;;0.50;0.50;;;30.70;40.70;;;;;;4982870;28;20703;-75
2022/10/05 13:31:56;;;;;;;0.50;0.50;;;30.30;41.00;;;;;;4978009;28;20190;-75
2022/10/05 13:34:32;;;;;;;1.10;0.40;;;30.30;43.40;;;;;;4974909;28;20704;-76
2022/10/05 13:36:58;;;;;;;2.20;0.50;;;30.20;42.60;;;;;;4978605;28;20233;-75
2022/10/05 13:39:54;;;;;;;0.75;0.40;;;30.30;43.40;;;;;;4976597;28;20194;-76
2022/10/05 13:42:43;;;;;;;0.47;0.47;;;30.40;41.40;;;;;;4969066;28;20190;-74
2022/10/05 13:45:16;;;;;;;1.55;0.50;;;30.50;42.60;;;;;;4969032;28;20212;-74
2022/10/05 13:48:07;;;;;;;0.50;0.50;;;30.40;40.80;;;;;;4985249;28;20224;-74
2022/10/05 13:50:47;;;;;;;1.33;0.57;;;30.30;41.30;;;;;;4987843;28;20509;-75
2022/10/05 13:53:20;;;;;;;0.40;0.40;;;30.30;41.70;;;;;;4990758;28;20215;-74
2022/10/05 13:55:59;;;;;;;1.25;0.40;;;30.40;41.10;;;;;;4990338;28;20196;-74
2022/10/05 13:58:33;;;;;;;0.40;0.40;;;30.50;41.00;;;;;;4990427;28;20220;-74
2022/10/05 14:01:01;;;;;;;4.05;0.50;;;30.20;42.10;;;;;;4992407;28;20199;-74
2022/10/05 14:03:35;;;;;;;0.50;0.50;;;29.80;42.80;;;;;;5028186;28;20278;-74
2022/10/05 14:06:28;;;;;;;1.05;0.50;;;29.60;43.70;;;;;;5048732;28;20672;-74
2022/10/05 14:08:56;;;;;;;0.73;0.40;;;29.50;42.60;;;;;;5052373;28;20187;-74
2022/10/05 14:11:30;;;;;;;0.55;0.55;;;29.30;41.80;;;;;;5047168;28;20171;-74
2022/10/05 14:14:24;;;;;;;0.40;0.40;;;29.10;44.00;;;;;;5056393;28;20977;-74
2022/10/05 14:16:53;;;;;;;0.50;0.40;;;28.80;42.80;;;;;;5052926;28;20229;-74
2022/10/05 14:19:30;;;;;;;0.50;0.50;;;28.50;43.80;;;;;;5055735;28;20191;-74